Alps, New York
Current Conditions -  °F | °C
As of 5:51 AM on Friday 24 Oct 2014 (Local Time) from KALB Reporting Station
Light Rain Light Rain  
Wind Chill:   Ceiling: 700
Heat Index:   Visibility: 4mi
Dew Point:   Wind: 5mph
Humidity: 93%   Direction: 10°N
Pressure: 29.83"   Gusts: NA
Location:  42.6497°N, 73.5273°W
Report Text: KALB 240951Z 01004KT 4SM -RA BR BKN007 BKN012 OVC040 08/07 A2983 RMK AO2 RAE06B46DZB06E46 SLP103 P0002 T00780067
Loading
Personal Weather Stations






























Interactive Weather Map New forecast layout! Learn more

10-Day Weather Forecast

Advertisements
Track Severe Weather on mobile